Time;durP1;ratioP1;P1;durP2;ratioP2;P2;SDS_P1;SDS_P2;PMS_P1;PMS_P2;Temp;Humidity;BMP_temperature;BMP_pressure;BME280_temperature;BME280_humidity;BME280_pressure;Samples;Min_cycle;Max_cycle;Signal;HPM_P1;HPM_P2
2022/05/23 00:02:24;;;;;;;7.55;1.70;;;14.80;99.90;;;;;;5057314;28;20044;-66
2022/05/23 00:04:50;;;;;;;3.72;1.75;;;;;;;;;;5055848;28;20061;-65
2022/05/23 00:07:26;;;;;;;3.75;1.73;;;14.70;99.90;;;;;;5056405;28;20052;-67
2022/05/23 00:09:52;;;;;;;6.00;1.73;;;14.50;99.90;;;;;;5057777;28;20120;-66
2022/05/23 00:12:18;;;;;;;5.10;1.92;;;14.60;99.90;;;;;;5058035;28;20130;-66
2022/05/23 00:14:44;;;;;;;4.72;1.60;;;;;;;;;;5040032;28;20040;-66
2022/05/23 00:17:12;;;;;;;7.70;2.17;;;14.70;99.90;;;;;;5056203;28;20076;-66
2022/05/23 00:19:38;;;;;;;4.85;1.73;;;14.60;99.90;;;;;;5055259;28;20442;-66
2022/05/23 00:22:04;;;;;;;5.53;1.90;;;14.50;99.90;;;;;;5039117;28;20041;-66
2022/05/23 00:24:29;;;;;;;4.57;1.70;;;14.50;99.90;;;;;;5056503;28;20036;-66
2022/05/23 00:26:56;;;;;;;3.13;1.65;;;14.50;99.90;;;;;;5054729;28;20051;-66
2022/05/23 00:29:21;;;;;;;5.43;1.63;;;14.60;99.90;;;;;;5055195;28;20059;-66
2022/05/23 00:37:22;;;;;;;6.07;1.67;;;14.30;99.90;;;;;;5057089;28;20056;-66
2022/05/23 00:39:47;;;;;;;5.68;2.10;;;14.40;99.90;;;;;;5057861;28;20041;-66
2022/05/23 00:45:01;;;;;;;4.30;1.77;;;14.30;99.90;;;;;;5057175;28;20045;-66
2022/05/23 00:47:28;;;;;;;5.35;1.80;;;14.40;99.90;;;;;;5055835;28;20048;-65
2022/05/23 00:49:54;;;;;;;5.88;1.92;;;14.50;99.90;;;;;;5056861;28;20044;-66
2022/05/23 00:52:43;;;;;;;5.53;1.92;;;14.40;99.90;;;;;;5055913;28;20053;-66
2022/05/23 00:55:21;;;;;;;4.80;1.80;;;14.20;99.90;;;;;;5056234;28;20566;-66
2022/05/23 00:57:50;;;;;;;4.72;1.58;;;14.30;99.90;;;;;;5055533;28;20067;-66
2022/05/23 01:00:17;;;;;;;5.47;1.60;;;14.30;99.90;;;;;;5054763;28;20041;-65
2022/05/23 01:02:47;;;;;;;5.55;2.03;;;14.30;99.90;;;;;;5056716;28;20044;-66
2022/05/23 01:05:13;;;;;;;7.43;1.90;;;14.20;99.90;;;;;;5055130;28;20515;-66
2022/05/23 01:07:39;;;;;;;4.10;1.77;;;14.30;99.90;;;;;;5035543;28;20076;-66
2022/05/23 01:10:05;;;;;;;4.82;2.03;;;14.30;99.90;;;;;;5034959;28;20099;-66
2022/05/23 01:12:31;;;;;;;6.45;2.13;;;14.30;99.90;;;;;;5017588;28;20053;-64
2022/05/23 01:15:00;;;;;;;6.55;2.08;;;14.30;99.90;;;;;;5033887;28;20056;-65
2022/05/23 01:17:27;;;;;;;6.05;2.05;;;14.30;99.90;;;;;;5034691;28;20045;-66
2022/05/23 01:19:53;;;;;;;5.25;1.65;;;14.30;99.90;;;;;;5042948;28;20098;-66
2022/05/23 01:22:42;;;;;;;3.83;1.60;;;14.40;99.90;;;;;;5057478;28;20033;-66
2022/05/23 01:25:17;;;;;;;5.53;1.95;;;14.10;99.90;;;;;;5054831;28;20128;-66
2022/05/23 01:27:43;;;;;;;5.22;2.00;;;14.30;99.90;;;;;;5056526;28;20048;-66
2022/05/23 01:30:10;;;;;;;4.85;1.90;;;14.20;99.90;;;;;;5055674;28;20095;-66
2022/05/23 01:32:38;;;;;;;4.78;1.73;;;;;;;;;;5035862;28;20037;-64
2022/05/23 01:35:05;;;;;;;4.53;2.30;;;14.10;99.90;;;;;;5034099;28;20117;-63
2022/05/23 01:37:31;;;;;;;4.32;2.05;;;14.00;99.90;;;;;;5049814;28;20054;-64
2022/05/23 01:39:56;;;;;;;5.75;2.28;;;14.10;99.90;;;;;;5016806;28;20442;-63
2022/05/23 01:42:22;;;;;;;4.13;1.58;;;14.00;99.90;;;;;;5033010;28;20040;-63
2022/05/23 01:44:47;;;;;;;3.03;1.90;;;14.10;99.90;;;;;;5032995;28;20044;-64
2022/05/23 01:47:19;;;;;;;5.97;2.30;;;14.10;99.90;;;;;;5052940;28;20040;-63
2022/05/23 01:49:45;;;;;;;3.85;1.55;;;14.10;99.90;;;;;;5053519;28;20384;-63
2022/05/23 01:52:11;;;;;;;7.22;2.22;;;14.20;99.90;;;;;;5036426;28;20059;-64
2022/05/23 01:54:38;;;;;;;4.05;2.10;;;14.10;99.90;;;;;;5053008;28;20048;-63
2022/05/23 01:57:05;;;;;;;5.07;2.00;;;14.00;99.90;;;;;;5051818;28;20048;-63
2022/05/23 02:02:16;;;;;;;5.40;2.10;;;14.10;99.90;;;;;;5054192;28;20487;-63
2022/05/23 02:04:42;;;;;;;4.80;1.60;;;13.90;99.90;;;;;;5052911;28;20092;-64
2022/05/23 02:07:08;;;;;;;3.65;1.63;;;;;;;;;;5054228;28;20072;-63
2022/05/23 02:09:34;;;;;;;5.22;1.92;;;14.20;99.90;;;;;;5053461;28;20041;-62
2022/05/23 02:12:00;;;;;;;6.25;2.08;;;14.00;99.90;;;;;;5053024;28;20049;-64
2022/05/23 02:14:26;;;;;;;6.13;1.90;;;14.00;99.90;;;;;;5054152;28;20048;-63
2022/05/23 02:16:51;;;;;;;3.58;1.85;;;14.00;99.90;;;;;;5053445;28;20049;-63
2022/05/23 02:19:17;;;;;;;4.75;1.92;;;14.00;99.90;;;;;;5052873;28;20037;-63
2022/05/23 02:21:43;;;;;;;6.18;2.58;;;14.10;99.90;;;;;;5054168;28;20059;-63
2022/05/23 02:24:08;;;;;;;5.18;1.50;;;14.00;99.90;;;;;;5052203;28;20098;-63
2022/05/23 02:26:34;;;;;;;4.85;2.05;;;13.90;99.90;;;;;;5053298;28;20037;-63
2022/05/23 02:29:00;;;;;;;5.72;2.08;;;14.00;99.90;;;;;;5037314;28;20041;-63
2022/05/23 02:31:27;;;;;;;4.47;1.83;;;13.80;99.90;;;;;;5056995;28;20056;-63
2022/05/23 02:33:53;;;;;;;4.55;1.95;;;13.90;99.90;;;;;;5057738;28;20060;-63
2022/05/23 02:36:19;;;;;;;5.68;2.05;;;13.60;99.90;;;;;;5057975;28;20037;-63
2022/05/23 02:38:45;;;;;;;4.40;2.10;;;13.90;99.90;;;;;;5055978;28;20045;-63
2022/05/23 02:41:11;;;;;;;5.70;2.03;;;13.70;99.90;;;;;;5057460;28;20380;-63
2022/05/23 02:43:36;;;;;;;4.18;2.17;;;13.70;99.90;;;;;;5058689;28;20040;-62
2022/05/23 02:46:02;;;;;;;5.28;2.53;;;13.80;99.90;;;;;;5056731;28;20033;-64
2022/05/23 02:48:27;;;;;;;5.47;2.10;;;13.90;99.90;;;;;;5056614;28;20033;-65
2022/05/23 02:50:53;;;;;;;4.72;2.20;;;13.60;99.90;;;;;;5057915;28;20049;-65
2022/05/23 02:53:19;;;;;;;4.90;1.88;;;13.70;99.90;;;;;;5056518;28;20043;-64
2022/05/23 02:55:45;;;;;;;3.97;1.98;;;;;;;;;;5057881;28;20037;-65
2022/05/23 02:58:10;;;;;;;3.35;1.70;;;13.60;99.90;;;;;;5057859;28;20045;-63
2022/05/23 03:00:37;;;;;;;5.45;2.03;;;13.50;99.90;;;;;;5056647;28;20090;-64
2022/05/23 03:03:04;;;;;;;4.38;2.05;;;13.50;99.90;;;;;;5055898;28;20495;-63
2022/05/23 03:05:32;;;;;;;5.18;2.00;;;13.60;99.90;;;;;;5057732;28;20131;-63
2022/05/23 03:07:58;;;;;;;3.33;2.17;;;13.50;99.90;;;;;;5055968;28;20055;-63
2022/05/23 03:10:25;;;;;;;5.13;2.10;;;13.40;99.90;;;;;;5056655;28;20049;-63
2022/05/23 03:12:51;;;;;;;4.40;2.30;;;13.20;99.90;;;;;;5041005;28;20490;-64
2022/05/23 03:15:17;;;;;;;4.03;2.50;;;13.30;99.90;;;;;;5058092;28;20125;-63
2022/05/23 03:17:42;;;;;;;7.43;3.10;;;13.20;99.90;;;;;;5056170;28;20123;-64
2022/05/23 03:20:09;;;;;;;4.38;2.40;;;13.20;99.90;;;;;;5057788;28;20041;-63
2022/05/23 03:28:04;;;;;;;5.07;2.53;;;13.10;99.90;;;;;;5057098;28;20052;-63
2022/05/23 03:30:30;;;;;;;5.57;2.40;;;13.30;99.90;;;;;;5056045;28;20058;-63
2022/05/23 03:32:57;;;;;;;5.00;2.42;;;13.20;99.90;;;;;;5039404;28;20138;-63
2022/05/23 03:35:23;;;;;;;5.50;2.10;;;13.20;99.90;;;;;;5056306;28;20479;-63
2022/05/23 03:37:49;;;;;;;5.38;2.25;;;13.20;99.90;;;;;;5056664;28;20060;-63
2022/05/23 03:40:15;;;;;;;6.00;2.75;;;13.20;99.90;;;;;;5055754;28;20376;-64
2022/05/23 03:42:41;;;;;;;3.90;1.80;;;13.20;99.90;;;;;;5055317;28;20040;-64
2022/05/23 03:45:07;;;;;;;5.50;2.05;;;13.10;99.90;;;;;;5056304;28;20047;-63
2022/05/23 03:47:33;;;;;;;5.97;2.33;;;;;;;;;;5055554;28;20048;-64
2022/05/23 03:49:59;;;;;;;4.80;2.20;;;13.00;99.90;;;;;;5055375;28;20045;-62
2022/05/23 03:52:25;;;;;;;4.40;2.55;;;13.10;99.90;;;;;;5056233;28;20171;-61
2022/05/23 03:54:50;;;;;;;3.63;2.22;;;13.30;99.90;;;;;;5055619;28;20132;-62
2022/05/23 03:57:16;;;;;;;4.32;2.10;;;13.20;99.90;;;;;;5054245;28;20041;-62
2022/05/23 03:59:42;;;;;;;5.38;2.50;;;13.10;99.90;;;;;;5056021;28;20452;-62
2022/05/23 04:02:08;;;;;;;4.53;2.10;;;;;;;;;;5057158;28;20187;-62
2022/05/23 04:04:33;;;;;;;7.75;2.65;;;13.20;99.90;;;;;;5056157;28;20053;-62
2022/05/23 04:07:01;;;;;;;2.78;1.90;;;13.20;99.90;;;;;;5056400;28;20053;-62
2022/05/23 04:09:28;;;;;;;9.20;2.95;;;13.10;99.90;;;;;;5056855;28;20033;-62
2022/05/23 04:11:54;;;;;;;5.65;2.25;;;13.50;99.90;;;;;;5056616;28;20029;-62
2022/05/23 04:14:19;;;;;;;3.08;2.20;;;13.20;99.90;;;;;;5055695;28;20094;-62
2022/05/23 04:16:49;;;;;;;9.18;3.08;;;13.30;99.90;;;;;;5054177;28;20045;-62
2022/05/23 04:19:16;;;;;;;8.02;2.40;;;13.10;99.90;;;;;;5056546;28;20036;-62
2022/05/23 04:21:43;;;;;;;5.38;2.20;;;13.30;99.90;;;;;;5055834;28;20044;-62
2022/05/23 04:24:11;;;;;;;5.18;2.10;;;13.30;99.90;;;;;;5055399;28;20434;-62
2022/05/23 04:26:37;;;;;;;5.10;2.53;;;13.50;99.90;;;;;;5035139;28;20055;-63
2022/05/23 04:29:04;;;;;;;7.60;3.00;;;13.30;99.90;;;;;;5037321;28;20044;-63
2022/05/23 04:31:29;;;;;;;6.88;2.58;;;13.30;99.90;;;;;;5036060;28;20064;-64
2022/05/23 04:36:39;;;;;;;4.22;3.17;;;13.30;99.90;;;;;;5033559;28;20042;-63
2022/05/23 04:39:07;;;;;;;6.00;3.38;;;13.30;99.90;;;;;;5033584;28;20549;-63
2022/05/23 04:41:33;;;;;;;4.57;2.92;;;;;;;;;;5021607;28;20073;-64
2022/05/23 04:43:59;;;;;;;8.38;3.15;;;13.60;99.90;;;;;;5029297;28;20088;-62
2022/05/23 04:46:25;;;;;;;7.10;3.50;;;13.50;99.90;;;;;;5043041;28;20457;-64
2022/05/23 04:51:35;;;;;;;13.48;3.30;;;;;;;;;;5027594;28;20053;-64
2022/05/23 04:54:00;;;;;;;6.82;3.33;;;13.90;99.90;;;;;;5028826;28;20506;-63
2022/05/23 04:56:27;;;;;;;6.60;2.97;;;13.80;99.90;;;;;;5028447;28;20046;-64
2022/05/23 04:58:55;;;;;;;10.15;2.95;;;;;;;;;;5027507;28;20136;-64
2022/05/23 05:01:21;;;;;;;5.18;2.85;;;14.00;99.90;;;;;;5026702;28;20534;-64
2022/05/23 05:03:47;;;;;;;3.60;2.67;;;;;;;;;;5026925;28;20045;-64
2022/05/23 05:06:13;;;;;;;10.20;2.83;;;;;;;;;;5026820;28;20511;-64
2022/05/23 05:08:39;;;;;;;5.53;2.58;;;14.40;99.90;;;;;;5028813;28;20049;-64
2022/05/23 05:11:05;;;;;;;6.38;2.17;;;14.50;99.90;;;;;;5028046;28;20083;-63
2022/05/23 05:13:36;;;;;;;4.95;2.60;;;14.40;99.90;;;;;;5024594;28;20041;-63
2022/05/23 05:16:03;;;;;;;5.55;2.55;;;14.60;99.90;;;;;;5032299;28;20036;-63
2022/05/23 05:18:30;;;;;;;7.05;2.70;;;;;;;;;;5045387;28;20152;-63
2022/05/23 05:20:57;;;;;;;5.65;2.83;;;;;;;;;;5045329;28;20200;-63
2022/05/23 05:23:24;;;;;;;3.90;2.47;;;;;;;;;;5046800;28;20048;-63
2022/05/23 05:25:52;;;;;;;5.18;2.83;;;15.00;99.90;;;;;;5046141;28;20443;-64
2022/05/23 05:28:18;;;;;;;9.82;3.80;;;15.30;99.90;;;;;;5046190;28;20055;-62
2022/05/23 05:30:51;;;;;;;4.53;2.38;;;15.30;99.90;;;;;;5036000;28;20049;-65
2022/05/23 05:33:21;;;;;;;6.10;2.40;;;15.40;99.90;;;;;;5038855;28;20132;-63
2022/05/23 05:35:55;;;;;;;4.68;2.58;;;15.30;99.90;;;;;;5026833;28;20053;-64
2022/05/23 05:38:43;;;;;;;7.82;2.65;;;15.20;99.90;;;;;;5028955;28;20049;-64
2022/05/23 05:41:17;;;;;;;4.55;2.70;;;15.20;99.90;;;;;;5047722;28;20055;-64
2022/05/23 05:43:51;;;;;;;6.63;2.47;;;15.80;99.90;;;;;;5047328;28;20048;-65
2022/05/23 05:46:23;;;;;;;5.50;2.70;;;15.80;99.90;;;;;;5048689;28;20040;-65
2022/05/23 05:48:50;;;;;;;4.13;2.22;;;16.00;99.90;;;;;;5044012;28;20116;-65
2022/05/23 05:51:20;;;;;;;5.57;2.10;;;16.20;99.90;;;;;;5049325;28;20055;-65
2022/05/23 05:53:47;;;;;;;5.68;2.33;;;16.40;99.90;;;;;;5051031;28;20037;-65
2022/05/23 05:56:13;;;;;;;6.25;2.20;;;16.30;99.90;;;;;;5050939;28;20553;-64
2022/05/23 05:58:39;;;;;;;3.58;2.38;;;16.40;99.90;;;;;;5052457;28;20032;-64
2022/05/23 06:01:04;;;;;;;3.92;2.22;;;16.70;99.90;;;;;;5036063;28;20075;-65
2022/05/23 06:03:31;;;;;;;6.10;2.33;;;16.60;99.90;;;;;;5031005;28;20095;-65
2022/05/23 06:11:26;;;;;;;5.50;2.33;;;17.00;99.90;;;;;;5042065;28;20056;-65
2022/05/23 06:13:55;;;;;;;4.88;2.33;;;17.50;99.90;;;;;;5040147;28;20121;-65
2022/05/23 06:16:22;;;;;;;4.78;2.92;;;17.40;99.90;;;;;;5040678;28;20179;-65
2022/05/23 06:18:47;;;;;;;4.63;2.47;;;17.70;99.90;;;;;;5042334;28;20086;-65
2022/05/23 06:21:14;;;;;;;4.18;2.45;;;17.20;99.90;;;;;;5039723;28;20683;-65
2022/05/23 06:23:41;;;;;;;7.45;2.92;;;17.10;99.90;;;;;;5037785;28;20052;-65
2022/05/23 06:26:06;;;;;;;5.40;2.47;;;17.00;99.90;;;;;;5040261;28;20072;-65
2022/05/23 06:28:34;;;;;;;6.50;2.97;;;16.70;99.90;;;;;;5042310;28;20072;-65
2022/05/23 06:31:00;;;;;;;5.38;3.10;;;16.60;99.90;;;;;;5042619;28;20687;-65
2022/05/23 06:33:26;;;;;;;5.22;2.53;;;16.60;99.90;;;;;;5040549;28;20044;-65
2022/05/23 06:35:52;;;;;;;6.13;2.75;;;16.60;99.90;;;;;;5041903;28;20052;-65
2022/05/23 06:38:17;;;;;;;7.45;3.05;;;16.70;99.90;;;;;;5040639;28;20045;-65
2022/05/23 06:40:46;;;;;;;7.78;4.35;;;16.80;99.90;;;;;;5040529;28;20044;-65
2022/05/23 06:43:12;;;;;;;5.47;3.10;;;16.70;99.90;;;;;;5039035;28;20050;-65
2022/05/23 06:45:37;;;;;;;5.32;2.88;;;17.10;99.90;;;;;;5036224;28;20222;-65
2022/05/23 06:48:03;;;;;;;7.93;3.20;;;17.20;99.90;;;;;;5040600;28;20049;-65
2022/05/23 06:50:28;;;;;;;7.35;3.13;;;17.20;99.90;;;;;;5040650;28;20036;-65
2022/05/23 06:52:54;;;;;;;6.75;3.00;;;17.10;99.90;;;;;;5044031;28;20049;-65
2022/05/23 06:55:19;;;;;;;5.07;3.10;;;17.30;99.90;;;;;;5043137;28;20095;-65
2022/05/23 06:57:45;;;;;;;5.85;3.17;;;17.40;99.90;;;;;;5041907;28;20772;-65
2022/05/23 07:00:11;;;;;;;7.00;3.28;;;17.50;99.90;;;;;;5044855;28;20044;-65
2022/05/23 07:02:38;;;;;;;3.95;2.83;;;17.40;99.90;;;;;;5041559;28;20064;-65
2022/05/23 07:13:17;;;;;;;7.80;3.28;;;18.00;99.90;;;;;;5039936;28;20947;-66
2022/05/23 07:15:46;;;;;;;5.78;3.13;;;18.00;99.90;;;;;;5039511;28;20046;-66
2022/05/23 07:18:16;;;;;;;8.23;3.15;;;18.10;99.90;;;;;;5045497;28;20044;-66
2022/05/23 07:20:42;;;;;;;6.57;3.28;;;18.10;99.90;;;;;;5027402;28;20094;-66
2022/05/23 07:23:09;;;;;;;7.13;3.35;;;18.00;99.90;;;;;;5044610;28;20036;-66
2022/05/23 07:25:35;;;;;;;6.50;3.10;;;18.20;99.90;;;;;;5034394;28;20047;-65
2022/05/23 07:28:00;;;;;;;6.07;3.30;;;18.40;99.90;;;;;;5038956;28;20413;-66
2022/05/23 07:30:26;;;;;;;7.13;2.72;;;18.40;99.90;;;;;;5032172;28;20048;-66
2022/05/23 07:32:51;;;;;;;10.15;3.00;;;18.30;99.90;;;;;;5033739;28;20080;-65
2022/05/23 07:35:17;;;;;;;7.60;3.20;;;18.30;99.90;;;;;;5031698;28;20559;-66
2022/05/23 07:37:43;;;;;;;6.03;2.88;;;18.40;99.90;;;;;;5035045;28;20135;-67
2022/05/23 07:40:10;;;;;;;6.30;3.58;;;18.50;99.90;;;;;;5044362;28;20951;-67
2022/05/23 07:42:36;;;;;;;5.57;3.90;;;18.60;99.90;;;;;;5039783;28;20045;-66
2022/05/23 07:45:03;;;;;;;5.68;2.72;;;18.50;99.90;;;;;;5042730;28;20490;-66
2022/05/23 07:47:29;;;;;;;5.43;2.67;;;18.60;99.90;;;;;;5044081;28;20591;-66
2022/05/23 07:49:54;;;;;;;3.83;3.00;;;18.80;99.90;;;;;;5040281;28;20048;-66
2022/05/23 07:52:20;;;;;;;6.03;2.97;;;18.70;99.90;;;;;;5039806;28;20037;-66
2022/05/23 08:00:33;;;;;;;8.53;2.97;;;18.80;99.90;;;;;;5037180;28;20160;-66
2022/05/23 08:03:05;;;;;;;5.00;3.17;;;19.10;99.90;;;;;;5040361;28;20506;-67
2022/05/23 08:05:32;;;;;;;6.43;3.17;;;18.80;99.90;;;;;;5038413;28;20074;-66
2022/05/23 08:07:58;;;;;;;6.90;3.40;;;19.10;99.90;;;;;;5038974;28;20165;-66
2022/05/23 08:10:25;;;;;;;7.03;3.17;;;19.10;99.90;;;;;;5036949;28;20079;-67
2022/05/23 08:12:54;;;;;;;8.45;3.55;;;19.40;99.90;;;;;;5037297;28;20056;-66
2022/05/23 08:15:22;;;;;;;5.78;3.00;;;19.40;99.90;;;;;;5036902;28;20041;-67
2022/05/23 08:17:48;;;;;;;9.40;3.17;;;19.60;99.90;;;;;;5041698;28;20041;-66
2022/05/23 08:20:14;;;;;;;7.03;3.33;;;19.60;99.90;;;;;;5039987;28;20041;-66
2022/05/23 08:22:40;;;;;;;6.40;2.97;;;19.70;99.90;;;;;;5045693;28;20059;-67
2022/05/23 08:25:07;;;;;;;4.50;2.88;;;19.60;99.90;;;;;;5035012;28;20036;-66
2022/05/23 08:27:33;;;;;;;5.30;3.03;;;19.70;99.90;;;;;;5038184;28;20075;-65
2022/05/23 08:30:00;;;;;;;6.63;3.08;;;19.70;99.90;;;;;;5036051;28;20187;-65
2022/05/23 08:32:25;;;;;;;7.03;3.35;;;20.00;99.90;;;;;;5042164;28;21837;-65
2022/05/23 08:34:52;;;;;;;9.02;3.08;;;18.20;99.90;;;;;;5040828;28;20339;-65
2022/05/23 08:37:18;;;;;;;5.30;2.92;;;20.40;99.90;;;;;;5042751;28;20053;-68
2022/05/23 08:39:43;;;;;;;5.45;2.80;;;20.40;99.90;;;;;;5042922;28;20044;-68
2022/05/23 08:42:24;;;;;;;6.05;2.60;;;20.20;99.90;;;;;;5043466;28;20060;-65
2022/05/23 08:45:03;;;;;;;8.95;3.35;;;20.40;99.90;;;;;;5033273;28;20072;-66
2022/05/23 08:47:59;;;;;;;5.57;2.83;;;20.60;99.90;;;;;;5042752;28;20064;-68
2022/05/23 08:50:55;;;;;;;7.35;3.30;;;20.70;99.90;;;;;;5043979;28;20059;-66
2022/05/23 08:53:23;;;;;;;;;;;20.70;99.90;;;;;;5040040;28;20080;-66
2022/05/23 08:55:56;;;;;;;6.18;3.42;;;20.90;99.90;;;;;;5042461;28;19920;-66
2022/05/23 08:58:37;;;;;;;10.40;2.90;;;21.30;99.90;;;;;;5038349;28;20041;-66
2022/05/23 09:01:09;;;;;;;7.38;2.83;;;21.20;99.90;;;;;;5036468;28;20043;-65
2022/05/23 09:03:49;;;;;;;5.03;3.53;;;20.90;99.90;;;;;;5038064;28;20416;-67
2022/05/23 09:06:23;;;;;;;11.25;3.15;;;21.40;99.90;;;;;;5033493;28;20064;-66
2022/05/23 09:08:55;;;;;;;8.90;3.10;;;21.30;99.90;;;;;;5036044;28;20054;-67
2022/05/23 09:11:47;;;;;;;8.98;3.55;;;21.30;99.90;;;;;;5018644;28;20309;-67
2022/05/23 09:14:16;;;;;;;5.80;3.08;;;21.60;99.90;;;;;;5027039;28;20053;-67
2022/05/23 09:16:56;;;;;;;10.10;3.80;;;21.50;99.90;;;;;;5039096;28;20049;-67
2022/05/23 09:19:35;;;;;;;11.23;3.92;;;21.40;99.90;;;;;;5018796;28;20052;-68
2022/05/23 09:22:18;;;;;;;9.07;3.60;;;21.70;99.90;;;;;;5035711;28;20051;-66
2022/05/23 09:24:58;;;;;;;9.90;3.30;;;21.50;99.90;;;;;;5034243;28;20124;-66
2022/05/23 09:27:39;;;;;;;6.07;3.35;;;21.40;99.90;;;;;;5040948;28;20128;-67
2022/05/23 09:30:15;;;;;;;7.75;3.35;;;21.60;99.90;;;;;;5038746;28;20102;-69
2022/05/23 09:32:55;;;;;;;6.13;3.15;;;21.70;99.90;;;;;;5040907;28;20331;-67
2022/05/23 09:35:22;;;;;;;8.20;3.08;;;21.70;99.90;;;;;;5036315;28;20049;-66
2022/05/23 09:38:25;;;;;;;7.28;3.53;;;21.70;99.90;;;;;;5023592;28;20090;-66
2022/05/23 09:40:52;;;;;;;4.72;2.50;;;21.90;99.90;;;;;;5032703;28;20560;-67
2022/05/23 09:49:18;;;;;;;10.05;3.25;;;22.00;99.90;;;;;;5041993;28;20049;-70
2022/05/23 09:51:49;;;;;;;6.80;3.08;;;22.30;99.90;;;;;;5037326;28;20045;-72
2022/05/23 09:54:19;;;;;;;6.88;3.28;;;22.40;99.90;;;;;;5041693;28;20567;-72
2022/05/23 09:56:45;;;;;;;9.48;3.72;;;22.40;99.90;;;;;;5040831;28;20907;-70
2022/05/23 09:59:34;;;;;;;6.35;2.80;;;22.30;99.90;;;;;;5039339;28;20056;-67
2022/05/23 10:02:25;;;;;;;7.15;3.05;;;22.20;99.90;;;;;;5037555;28;20451;-67
2022/05/23 10:04:50;;;;;;;4.78;3.08;;;22.30;99.90;;;;;;5038048;28;20525;-66
2022/05/23 10:07:35;;;;;;;6.00;2.75;;;22.70;99.90;;;;;;5040524;28;20072;-67
2022/05/23 10:10:18;;;;;;;4.88;2.00;;;22.90;99.90;;;;;;5025656;28;20049;-66
2022/05/23 10:12:44;;;;;;;7.55;2.72;;;22.70;99.90;;;;;;5042273;28;20056;-66
2022/05/23 10:15:17;;;;;;;6.30;2.78;;;22.90;99.90;;;;;;5045094;28;20056;-66
2022/05/23 10:17:43;;;;;;;5.30;3.13;;;22.60;99.90;;;;;;5038142;28;20113;-66
2022/05/23 10:20:30;;;;;;;6.47;3.17;;;20.80;99.90;;;;;;5036698;28;20511;-66
2022/05/23 10:23:00;;;;;;;5.72;2.20;;;23.40;99.90;;;;;;5040808;28;20083;-67
2022/05/23 10:25:34;;;;;;;6.90;2.45;;;23.20;99.90;;;;;;5041386;28;20036;-66
2022/05/23 10:28:07;;;;;;;7.65;2.35;;;23.20;99.90;;;;;;5038255;28;20063;-69
2022/05/23 10:30:36;;;;;;;7.68;2.00;;;22.90;99.90;;;;;;5043014;28;20054;-68
2022/05/23 10:33:10;;;;;;;4.25;2.00;;;23.10;99.90;;;;;;5041068;28;20048;-66
2022/05/23 10:35:44;;;;;;;;;;;23.40;99.90;;;;;;5032907;28;20600;-67
2022/05/23 10:44:15;;;;;;;5.13;2.00;;;23.40;99.90;;;;;;5034174;28;20064;-66
2022/05/23 10:46:44;;;;;;;6.32;2.65;;;23.70;99.90;;;;;;5043245;28;20077;-65
2022/05/23 10:49:12;;;;;;;4.18;1.95;;;23.70;99.90;;;;;;5043652;28;20036;-66
2022/05/23 10:51:52;;;;;;;5.53;2.35;;;23.50;99.90;;;;;;5046713;28;20053;-65
2022/05/23 10:54:32;;;;;;;4.38;2.22;;;23.40;99.90;;;;;;5044520;28;20490;-67
2022/05/23 10:57:36;;;;;;;5.72;1.67;;;23.50;99.90;;;;;;5045865;28;20041;-65
2022/05/23 11:00:12;;;;;;;7.55;2.28;;;23.80;99.90;;;;;;5045501;28;20060;-65
2022/05/23 11:03:03;;;;;;;5.53;2.28;;;23.70;99.90;;;;;;5044479;28;20559;-66
2022/05/23 11:05:33;;;;;;;4.00;1.70;;;24.10;99.90;;;;;;5044584;28;20079;-67
2022/05/23 11:08:23;;;;;;;6.03;1.88;;;24.00;99.90;;;;;;5048594;28;20056;-66
2022/05/23 11:11:04;;;;;;;3.10;1.65;;;24.40;99.90;;;;;;5044155;28;20113;-66
2022/05/23 11:13:49;;;;;;;4.95;1.80;;;24.20;99.90;;;;;;5045694;28;20099;-66
2022/05/23 11:16:26;;;;;;;3.97;1.60;;;24.40;99.90;;;;;;5044400;28;20075;-66
2022/05/23 11:19:02;;;;;;;4.53;2.05;;;24.10;99.90;;;;;;5045969;28;20057;-66
2022/05/23 11:21:56;;;;;;;3.63;1.77;;;24.20;99.90;;;;;;5043430;28;20044;-66
2022/05/23 11:24:33;;;;;;;5.25;1.42;;;24.10;99.90;;;;;;5044437;28;20494;-66
2022/05/23 11:35:42;;;;;;;7.90;2.08;;;24.20;99.90;;;;;;5044712;28;20141;-64
2022/05/23 11:38:09;;;;;;;4.05;1.88;;;24.20;99.90;;;;;;5044806;28;20048;-65
2022/05/23 11:40:38;;;;;;;3.08;1.00;;;23.90;99.90;;;;;;5047780;28;20184;-66
2022/05/23 11:43:10;;;;;;;2.15;1.20;;;24.20;99.90;;;;;;5047021;28;20511;-64
2022/05/23 11:45:57;;;;;;;2.90;1.45;;;24.20;99.90;;;;;;5043158;28;20048;-65
2022/05/23 11:48:35;;;;;;;4.88;1.10;;;24.00;99.90;;;;;;5045769;28;20057;-65
2022/05/23 11:51:12;;;;;;;4.13;1.23;;;24.00;99.90;;;;;;5045409;28;20514;-65
2022/05/23 11:53:56;;;;;;;2.95;1.42;;;24.10;99.90;;;;;;5046196;28;20578;-65
2022/05/23 11:56:55;;;;;;;10.45;1.70;;;24.00;99.90;;;;;;5046697;28;20418;-66
2022/05/23 11:59:23;;;;;;;4.38;1.50;;;23.80;99.90;;;;;;5047598;28;20190;-66
2022/05/23 12:02:12;;;;;;;7.18;1.50;;;23.60;99.90;;;;;;5044818;28;20044;-65
2022/05/23 12:04:44;;;;;;;2.25;0.80;;;23.80;99.90;;;;;;5046091;28;20583;-65
2022/05/23 12:07:39;;;;;;;3.25;1.50;;;24.00;99.90;;;;;;5043441;28;20105;-65
2022/05/23 12:10:26;;;;;;;4.75;1.77;;;23.50;99.90;;;;;;5043874;28;20101;-65
2022/05/23 12:12:57;;;;;;;7.60;1.70;;;23.70;99.90;;;;;;5040685;28;20167;-65
2022/05/23 12:15:42;;;;;;;2.95;1.30;;;21.10;99.90;;;;;;5045845;28;20127;-65
2022/05/23 12:18:11;;;;;;;5.20;1.40;;;23.50;99.90;;;;;;5040867;28;20495;-65
2022/05/23 12:20:45;;;;;;;4.63;2.05;;;23.40;99.90;;;;;;5042086;28;20078;-65
2022/05/23 12:23:28;;;;;;;6.73;1.77;;;23.40;99.90;;;;;;5042691;28;20049;-64
2022/05/23 12:26:10;;;;;;;5.70;1.80;;;23.50;99.90;;;;;;5042122;28;20059;-65
2022/05/23 12:28:59;;;;;;;3.80;1.42;;;23.40;99.90;;;;;;5041068;28;20599;-65
2022/05/23 12:31:33;;;;;;;4.15;1.92;;;23.40;99.90;;;;;;5041377;28;20113;-65
2022/05/23 12:34:02;;;;;;;6.05;1.90;;;23.30;99.90;;;;;;5042719;28;20053;-66
2022/05/23 12:36:29;;;;;;;6.47;1.85;;;23.20;99.90;;;;;;5044180;28;20095;-65
2022/05/23 12:39:35;;;;;;;3.55;1.90;;;23.30;99.90;;;;;;5046534;28;20504;-66
2022/05/23 12:42:31;;;;;;;4.82;1.80;;;23.40;99.90;;;;;;5037647;28;20067;-65
2022/05/23 12:45:11;;;;;;;9.23;1.90;;;23.20;99.90;;;;;;5043550;28;20045;-65
2022/05/23 12:47:36;;;;;;;4.32;2.03;;;23.00;99.90;;;;;;5043744;28;20505;-65
2022/05/23 12:50:33;;;;;;;4.72;1.80;;;23.10;99.90;;;;;;5044906;28;20086;-65
2022/05/23 12:53:20;;;;;;;4.28;2.05;;;23.00;99.90;;;;;;5043305;28;20083;-65
2022/05/23 12:56:01;;;;;;;4.60;1.70;;;22.90;99.90;;;;;;5043605;28;20523;-64
2022/05/23 12:58:30;;;;;;;4.80;1.70;;;22.90;99.90;;;;;;5039006;28;20071;-65
2022/05/23 13:01:11;;;;;;;3.35;1.80;;;22.80;99.90;;;;;;5042314;28;20041;-66
2022/05/23 13:04:01;;;;;;;6.40;2.38;;;23.00;99.90;;;;;;5045154;28;20044;-64
2022/05/23 13:06:33;;;;;;;4.43;1.60;;;22.80;99.90;;;;;;5043848;28;20643;-67
2022/05/23 13:09:31;;;;;;;5.55;1.98;;;22.80;99.90;;;;;;5043031;28;20045;-65
2022/05/23 13:12:02;;;;;;;4.93;2.08;;;22.70;99.90;;;;;;5042346;28;20072;-64
2022/05/23 13:14:47;;;;;;;4.85;2.20;;;23.10;99.90;;;;;;5042313;28;20056;-64
2022/05/23 13:17:12;;;;;;;;;;;22.70;99.90;;;;;;5042589;28;20071;-64
2022/05/23 13:22:38;;;;;;;6.07;3.10;;;22.70;99.90;;;;;;5036163;28;21098;-64
2022/05/23 13:25:04;;;;;;;8.48;3.03;;;22.50;99.90;;;;;;5040324;28;20048;-63
2022/05/23 13:27:37;;;;;;;5.90;2.70;;;22.40;99.90;;;;;;5040170;28;20064;-65
2022/05/23 13:30:21;;;;;;;7.68;3.17;;;22.60;99.90;;;;;;5040469;28;20083;-64
2022/05/23 13:33:14;;;;;;;5.25;2.60;;;22.40;99.90;;;;;;5037188;28;20139;-65
2022/05/23 13:35:41;;;;;;;6.35;2.85;;;22.70;99.90;;;;;;5040124;28;20079;-64
2022/05/23 13:38:16;;;;;;;6.60;3.22;;;22.70;99.90;;;;;;5039438;28;20083;-64
2022/05/23 13:40:48;;;;;;;5.97;3.75;;;23.10;99.90;;;;;;5034754;28;20611;-63
2022/05/23 13:43:18;;;;;;;7.25;4.00;;;23.00;99.90;;;;;;5033947;28;20168;-65
2022/05/23 13:45:46;;;;;;;9.35;4.18;;;23.00;99.90;;;;;;5030277;28;20624;-68
2022/05/23 13:48:40;;;;;;;8.23;3.35;;;22.80;99.90;;;;;;5031847;28;20165;-69
2022/05/23 13:51:11;;;;;;;7.50;3.55;;;23.10;99.90;;;;;;5033058;28;20068;-67
2022/05/23 13:53:48;;;;;;;5.78;4.32;;;23.10;99.90;;;;;;5035649;28;20078;-66
2022/05/23 13:56:14;;;;;;;6.82;4.00;;;22.90;99.90;;;;;;5033101;28;20081;-67
2022/05/23 13:58:47;;;;;;;8.38;4.35;;;24.00;99.90;;;;;;5033572;28;20058;-67
2022/05/23 14:01:21;;;;;;;7.40;3.40;;;22.80;99.90;;;;;;5032972;28;20047;-67
2022/05/23 14:04:00;;;;;;;6.18;3.25;;;23.20;99.90;;;;;;5034162;28;20052;-67
2022/05/23 14:06:32;;;;;;;7.00;4.40;;;23.20;99.90;;;;;;5033542;28;20114;-68
2022/05/23 14:09:03;;;;;;;6.00;3.88;;;23.10;99.90;;;;;;5036106;28;20080;-67
2022/05/23 14:11:51;;;;;;;5.53;3.63;;;22.90;99.90;;;;;;5032527;28;20404;-67
2022/05/23 14:14:39;;;;;;;5.88;3.05;;;22.90;99.90;;;;;;5036500;28;20178;-67
2022/05/23 14:17:26;;;;;;;7.65;3.85;;;22.80;99.90;;;;;;5032610;28;20102;-67
2022/05/23 14:19:55;;;;;;;9.48;3.88;;;22.60;99.90;;;;;;5035994;28;20049;-67